Time;durP1;ratioP1;P1;durP2;ratioP2;P2;SDS_P1;SDS_P2;PMS_P1;PMS_P2;Temp;Humidity;BMP_temperature;BMP_pressure;BME280_temperature;BME280_humidity;BME280_pressure;Samples;Min_cycle;Max_cycle;Signal;HPM_P1;HPM_P2
2023/03/08 00:00:18;;;;;;;;;;;13.80;92.10;;;;;;5034403;28;20027;-86
2023/03/08 00:02:52;;;;;;;;;;;13.70;92.00;;;;;;5033134;28;19963;-86
2023/03/08 00:05:30;;;;;;;;;;;13.80;92.10;;;;;;5051865;28;20272;-86
2023/03/08 00:10:52;;;;;;;;;;;13.80;92.10;;;;;;5092756;28;19919;-85
2023/03/08 00:19:24;;;;;;;;;;;13.70;92.10;;;;;;5052562;28;20267;-86
2023/03/08 00:21:50;;;;;;;;;;;13.70;92.00;;;;;;5073296;28;19908;-86
2023/03/08 00:24:24;;;;;;;;;;;13.70;92.00;;;;;;5096130;28;19973;-86
2023/03/08 00:27:17;;;;;;;;;;;13.70;91.90;;;;;;5077153;28;19919;-86
2023/03/08 00:30:14;;;;;;;;;;;13.80;92.00;;;;;;5078487;28;20831;-86
2023/03/08 00:32:43;;;;;;;;;;;13.70;92.20;;;;;;5081488;28;20266;-86
2023/03/08 00:35:20;;;;;;;;;;;13.70;91.90;;;;;;5099736;28;20347;-86
2023/03/08 00:37:46;;;;;;;;;;;13.80;91.90;;;;;;5082353;28;19951;-86
2023/03/08 00:40:30;;;;;;;;;;;13.80;91.90;;;;;;5075394;28;20168;-86
2023/03/08 00:43:20;;;;;;;;;;;13.70;91.80;;;;;;5081752;28;19931;-86
2023/03/08 00:46:04;;;;;;;;;;;13.70;91.80;;;;;;5081790;28;19934;-86
2023/03/08 00:51:30;;;;;;;;;;;13.70;91.80;;;;;;5098582;28;19920;-86
2023/03/08 00:54:00;;;;;;;;;;;13.70;91.80;;;;;;5081760;28;20056;-85
2023/03/08 00:59:42;;;;;;;;;;;13.70;91.70;;;;;;4977647;28;19934;-86
2023/03/08 01:02:28;;;;;;;;;;;13.70;91.70;;;;;;5019136;28;19917;-85
2023/03/08 01:08:16;;;;;;;;;;;13.70;91.70;;;;;;5035989;28;19917;-86
2023/03/08 01:13:39;;;;;;;;;;;13.70;91.70;;;;;;5037517;28;19920;-86
2023/03/08 01:16:36;;;;;;;;;;;13.70;91.70;;;;;;5020910;28;19912;-86
2023/03/08 01:22:06;;;;;;;;;;;13.70;91.70;;;;;;5043051;28;19971;-86
2023/03/08 01:24:32;;;;;;;;;;;13.70;91.60;;;;;;5098702;28;19994;-86
2023/03/08 01:26:59;;;;;;;;;;;13.70;91.60;;;;;;5081326;28;20014;-86
2023/03/08 01:29:28;;;;;;;;;;;13.70;91.60;;;;;;5081661;28;19919;-85
2023/03/08 01:31:56;;;;;;;;;;;13.70;91.60;;;;;;5099750;28;20272;-86
2023/03/08 01:34:22;;;;;;;;;;;13.70;91.50;;;;;;5080842;28;20166;-86
2023/03/08 01:36:47;;;;;;;;;;;13.70;91.50;;;;;;5081424;28;19920;-86
2023/03/08 01:39:13;;;;;;;;;;;13.70;91.50;;;;;;5080079;28;20288;-86
2023/03/08 01:41:39;;;;;;;;;;;13.70;91.50;;;;;;5078486;28;19914;-86
2023/03/08 01:44:05;;;;;;;;;;;13.70;91.50;;;;;;5079589;28;19912;-86
2023/03/08 01:46:31;;;;;;;;;;;13.70;91.40;;;;;;5080148;28;20010;-86
2023/03/08 01:49:03;;;;;;;;;;;13.70;91.40;;;;;;5079881;28;19999;-86
2023/03/08 01:51:50;;;;;;;;;;;13.70;91.40;;;;;;5079668;28;19908;-86
2023/03/08 01:54:39;;;;;;;;;;;13.70;91.40;;;;;;5096617;28;20018;-86
2023/03/08 01:57:07;;;;;;;;;;;13.70;91.40;;;;;;5066492;28;20194;-86
2023/03/08 01:59:36;;;;;;;;;;;13.70;91.40;;;;;;5079618;28;19919;-86
2023/03/08 02:02:04;;;;;;;;;;;13.70;91.40;;;;;;5079011;28;20178;-86
2023/03/08 02:04:33;;;;;;;;;;;13.70;91.40;;;;;;5078799;28;20213;-85
2023/03/08 02:06:58;;;;;;;;;;;13.60;91.30;;;;;;5079249;28;20330;-85
2023/03/08 02:09:24;;;;;;;;;;;13.60;91.30;;;;;;5080109;28;19915;-86
2023/03/08 02:11:50;;;;;;;;;;;13.60;91.30;;;;;;5078756;28;19932;-85
2023/03/08 02:16:51;;;;;;;;;;;13.60;91.20;;;;;;5162839;22;19975;-86
2023/03/08 02:19:23;;;;;;;;;;;13.70;91.20;;;;;;5054893;28;19908;-86
2023/03/08 02:21:52;;;;;;;;;;;13.60;91.20;;;;;;5040350;28;19912;-85
2023/03/08 02:24:19;;;;;;;;;;;13.60;91.20;;;;;;5038323;28;19916;-86
2023/03/08 02:26:45;;;;;;;;;;;13.60;91.20;;;;;;5039749;28;19913;-86
2023/03/08 02:29:11;;;;;;;;;;;13.60;91.20;;;;;;5039841;28;19916;-86
2023/03/08 02:31:36;;;;;;;;;;;13.60;91.20;;;;;;5056325;28;19969;-86
2023/03/08 02:34:05;;;;;;;;;;;13.60;91.10;;;;;;5057083;28;20011;-86
2023/03/08 02:36:34;;;;;;;;;;;13.60;91.10;;;;;;5039830;28;19932;-86
2023/03/08 02:38:59;;;;;;;;;;;13.60;91.10;;;;;;5056054;28;19909;-86
2023/03/08 02:41:25;;;;;;;;;;;13.60;91.10;;;;;;5039254;28;19935;-86
2023/03/08 02:43:50;;;;;;;;;;;13.60;91.00;;;;;;5039438;28;20170;-86
2023/03/08 02:46:19;;;;;;;;;;;13.60;91.00;;;;;;5039293;28;20297;-85
2023/03/08 02:48:45;;;;;;;;;;;13.60;91.00;;;;;;5039049;28;19919;-86
2023/03/08 02:51:11;;;;;;;;;;;13.60;91.00;;;;;;5039768;28;20003;-86
2023/03/08 02:53:36;;;;;;;;;;;13.60;91.00;;;;;;5055744;28;19909;-86
2023/03/08 02:56:03;;;;;;;;;;;13.60;90.90;;;;;;5038177;28;19915;-86
2023/03/08 02:58:29;;;;;;;;;;;13.60;90.90;;;;;;4981517;28;19908;-86
2023/03/08 03:00:55;;;;;;;;;;;13.60;90.90;;;;;;5048289;28;19909;-86
2023/03/08 03:03:20;;;;;;;;;;;13.60;90.90;;;;;;5033576;28;20296;-86
2023/03/08 03:05:46;;;;;;;;;;;13.60;90.90;;;;;;5033367;28;19908;-86
2023/03/08 03:08:12;;;;;;;;;;;13.60;90.90;;;;;;5052389;28;19913;-86
2023/03/08 03:10:37;;;;;;;;;;;13.60;90.90;;;;;;5035405;28;19923;-86
2023/03/08 03:13:03;;;;;;;;;;;13.60;90.90;;;;;;5036007;28;20190;-86
2023/03/08 03:15:29;;;;;;;;;;;13.60;90.90;;;;;;5035236;28;19908;-86
2023/03/08 03:17:55;;;;;;;;;;;13.60;90.80;;;;;;5054097;28;19923;-86
2023/03/08 03:20:21;;;;;;;;;;;13.60;90.80;;;;;;5036990;28;19908;-85
2023/03/08 03:22:46;;;;;;;;;;;13.60;90.80;;;;;;5037568;28;19940;-86
2023/03/08 03:25:12;;;;;;;;;;;13.60;90.80;;;;;;5055002;28;19964;-86
2023/03/08 03:27:38;;;;;;;;;;;13.60;90.80;;;;;;5038215;28;19920;-85
2023/03/08 03:30:05;;;;;;;;;;;13.60;90.70;;;;;;5037321;28;19909;-85
2023/03/08 03:32:30;;;;;;;;;;;13.60;91.00;;;;;;5038321;28;19908;-86
2023/03/08 03:34:56;;;;;;;;;;;13.60;90.70;;;;;;5037997;28;19909;-86
2023/03/08 03:37:21;;;;;;;;;;;13.60;90.70;;;;;;5055793;28;19917;-86
2023/03/08 03:39:50;;;;;;;;;;;13.60;90.70;;;;;;5037774;28;19909;-86
2023/03/08 03:42:16;;;;;;;;;;;13.60;90.70;;;;;;5056249;28;19909;-86
2023/03/08 03:44:41;;;;;;;;;;;13.60;90.60;;;;;;5037423;28;19936;-86
2023/03/08 03:47:07;;;;;;;;;;;13.60;90.60;;;;;;5038602;28;20206;-86
2023/03/08 03:49:35;;;;;;;;;;;13.60;90.60;;;;;;5039215;28;19939;-86
2023/03/08 03:52:01;;;;;;;;;;;13.50;90.50;;;;;;5038189;28;19908;-86
2023/03/08 03:54:27;;;;;;;;;;;13.60;90.60;;;;;;5054935;28;19931;-86
2023/03/08 03:56:54;;;;;;;;;;;13.60;90.60;;;;;;5046128;28;19917;-85
2023/03/08 03:59:19;;;;;;;;;;;13.60;90.60;;;;;;5037492;28;19921;-86
2023/03/08 04:01:45;;;;;;;;;;;13.60;90.50;;;;;;5036998;28;19970;-86
2023/03/08 04:04:10;;;;;;;;;;;13.60;90.50;;;;;;5034524;28;19912;-86
2023/03/08 04:06:36;;;;;;;;;;;13.60;90.50;;;;;;5035124;28;19928;-86
2023/03/08 04:09:07;;;;;;;;;;;13.60;90.50;;;;;;5038182;28;19916;-85
2023/03/08 04:11:36;;;;;;;;;;;13.50;90.40;;;;;;5036732;28;19909;-85
2023/03/08 04:14:02;;;;;;;;;;;13.50;90.40;;;;;;5036227;28;19955;-86
2023/03/08 04:16:33;;;;;;;;;;;13.50;90.40;;;;;;5036204;28;20308;-86
2023/03/08 04:18:59;;;;;;;;;;;13.50;90.40;;;;;;5054288;28;19909;-85
2023/03/08 04:21:28;;;;;;;;;;;13.50;90.40;;;;;;5038236;28;20182;-86
2023/03/08 04:23:54;;;;;;;;;;;13.50;90.40;;;;;;5036883;28;20267;-86
2023/03/08 04:26:20;;;;;;;;;;;13.50;90.40;;;;;;5036071;28;20236;-86
2023/03/08 04:28:45;;;;;;;;;;;13.50;90.40;;;;;;5035990;28;20274;-86
2023/03/08 04:31:16;;;;;;;;;;;13.50;90.40;;;;;;5053351;28;19972;-86
2023/03/08 04:33:44;;;;;;;;;;;13.50;90.30;;;;;;5035768;28;19909;-85
2023/03/08 04:36:10;;;;;;;;;;;13.50;90.30;;;;;;5036110;28;19913;-86
2023/03/08 04:38:36;;;;;;;;;;;13.50;90.30;;;;;;5037212;28;19920;-86
2023/03/08 04:41:09;;;;;;;;;;;13.50;90.30;;;;;;5053603;28;19909;-86
2023/03/08 04:43:34;;;;;;;;;;;13.50;90.30;;;;;;5035606;28;20004;-86
2023/03/08 04:46:00;;;;;;;;;;;13.50;90.30;;;;;;5051804;28;20068;-85
2023/03/08 04:48:26;;;;;;;;;;;13.50;90.30;;;;;;5034204;28;19909;-86
2023/03/08 04:50:56;;;;;;;;;;;13.50;90.30;;;;;;5051703;28;20321;-86
2023/03/08 04:53:22;;;;;;;;;;;13.50;90.30;;;;;;5034745;28;20194;-86
2023/03/08 04:55:48;;;;;;;;;;;13.50;90.30;;;;;;5034032;28;20012;-85
2023/03/08 04:58:13;;;;;;;;;;;13.50;90.30;;;;;;5033429;28;20282;-85
2023/03/08 05:00:40;;;;;;;;;;;13.50;90.30;;;;;;5034140;28;19919;-85
2023/03/08 05:03:12;;;;;;;;;;;13.50;90.30;;;;;;5054313;28;19909;-85
2023/03/08 05:05:43;;;;;;;;;;;13.50;90.30;;;;;;5036375;28;19909;-85
2023/03/08 05:08:12;;;;;;;;;;;13.50;90.30;;;;;;5034936;28;20177;-85
2023/03/08 05:10:41;;;;;;;;;;;13.50;90.30;;;;;;5050997;28;19940;-86
2023/03/08 05:13:09;;;;;;;;;;;13.50;90.30;;;;;;5035707;28;19915;-85
2023/03/08 05:15:35;;;;;;;;;;;13.40;90.20;;;;;;5034847;28;19908;-86
2023/03/08 05:18:00;;;;;;;;;;;13.50;90.20;;;;;;5055210;28;19923;-85
2023/03/08 05:20:26;;;;;;;;;;;13.40;90.20;;;;;;5039578;28;19974;-86
2023/03/08 05:22:51;;;;;;;;;;;13.50;90.20;;;;;;5040110;28;19909;-85
2023/03/08 05:25:17;;;;;;;;;;;13.50;90.20;;;;;;5037912;28;20286;-86
2023/03/08 05:27:45;;;;;;;;;;;13.40;90.30;;;;;;5039258;28;19964;-85
2023/03/08 05:30:11;;;;;;;;;;;13.40;90.20;;;;;;5038097;28;19917;-85
2023/03/08 05:32:39;;;;;;;;;;;13.40;90.20;;;;;;5057186;28;20401;-85
2023/03/08 05:35:05;;;;;;;;;;;13.40;90.10;;;;;;5039428;28;19923;-85
2023/03/08 05:37:31;;;;;;;;;;;13.40;90.10;;;;;;5054275;28;19909;-86
2023/03/08 05:39:56;;;;;;;;;;;13.50;90.10;;;;;;5037694;28;20088;-85
2023/03/08 05:42:22;;;;;;;;;;;13.40;90.10;;;;;;5037090;28;19909;-86
2023/03/08 05:44:47;;;;;;;;;;;13.40;90.10;;;;;;5053158;28;20002;-85
2023/03/08 05:47:13;;;;;;;;;;;13.40;90.20;;;;;;5033876;28;19968;-86
2023/03/08 05:49:39;;;;;;;;;;;13.40;90.20;;;;;;5034234;28;19927;-86
2023/03/08 05:52:07;;;;;;;;;;;13.40;90.20;;;;;;5033852;28;20303;-86
2023/03/08 05:54:38;;;;;;;;;;;13.40;90.20;;;;;;5036141;28;19908;-86
2023/03/08 05:57:07;;;;;;;;;;;13.40;90.20;;;;;;5032608;28;19958;-86
2023/03/08 05:59:32;;;;;;;;;;;13.40;90.30;;;;;;5032917;28;19909;-86
2023/03/08 06:01:58;;;;;;;;;;;13.40;90.30;;;;;;5034787;28;19920;-87
2023/03/08 06:04:23;;;;;;;;;;;13.40;90.30;;;;;;5033121;28;19974;-87
2023/03/08 06:06:50;;;;;;;;;;;13.40;90.30;;;;;;5031127;28;19913;-87
2023/03/08 06:09:19;;;;;;;;;;;13.40;90.30;;;;;;5031915;28;20187;-87
2023/03/08 06:11:44;;;;;;;;;;;13.40;90.20;;;;;;5050845;28;20047;-88
2023/03/08 06:14:10;;;;;;;;;;;13.40;90.20;;;;;;5049973;28;20011;-87
2023/03/08 06:16:35;;;;;;;;;;;13.40;90.20;;;;;;5033291;28;20298;-87
2023/03/08 06:19:04;;;;;;;;;;;13.40;90.20;;;;;;5050334;28;19958;-87
2023/03/08 06:21:30;;;;;;;;;;;13.40;90.30;;;;;;5050942;28;20078;-88
2023/03/08 06:23:55;;;;;;;;;;;13.40;90.50;;;;;;5033264;28;20145;-87
2023/03/08 06:26:21;;;;;;;;;;;13.40;90.70;;;;;;5032746;28;19913;-87
2023/03/08 06:28:46;;;;;;;;;;;13.40;90.90;;;;;;5048014;28;19908;-87
2023/03/08 06:31:13;;;;;;;;;;;13.40;90.90;;;;;;5033127;28;20000;-87
2023/03/08 06:33:42;;;;;;;;;;;13.40;90.90;;;;;;5029687;28;19955;-87
2023/03/08 06:36:12;;;;;;;;;;;13.40;91.00;;;;;;5031816;28;19909;-87
2023/03/08 06:38:39;;;;;;;;;;;13.40;91.10;;;;;;5050033;28;19970;-88
2023/03/08 06:41:05;;;;;;;;;;;13.40;91.20;;;;;;5032751;28;20242;-87
2023/03/08 06:43:34;;;;;;;;;;;13.40;91.20;;;;;;5031482;28;19913;-87
2023/03/08 06:46:18;;;;;;;;;;;13.40;91.20;;;;;;5030074;28;19919;-87
2023/03/08 06:48:47;;;;;;;;;;;13.40;91.20;;;;;;5031684;28;19932;-87
2023/03/08 06:51:19;;;;;;;;;;;13.40;91.20;;;;;;5031362;28;19908;-87
2023/03/08 06:53:48;;;;;;;;;;;13.40;91.10;;;;;;5033621;28;19917;-88
2023/03/08 06:56:17;;;;;;;;;;;13.50;91.00;;;;;;5030553;28;20016;-87
2023/03/08 06:58:43;;;;;;;;;;;13.50;90.80;;;;;;5032884;28;20194;-85
2023/03/08 07:01:08;;;;;;;;;;;13.40;90.70;;;;;;5030039;28;20351;-85
2023/03/08 07:03:35;;;;;;;;;;;13.40;90.60;;;;;;5029094;28;20271;-85
2023/03/08 07:06:04;;;;;;;;;;;13.50;90.50;;;;;;5047874;28;19991;-85
2023/03/08 07:08:30;;;;;;;;;;;13.40;90.50;;;;;;5029437;28;20372;-85
2023/03/08 07:10:58;;;;;;;;;;;13.40;90.40;;;;;;5030167;28;19913;-85
2023/03/08 07:13:24;;;;;;;;;;;13.40;90.40;;;;;;5027844;28;20195;-86
2023/03/08 07:15:52;;;;;;;;;;;13.40;90.20;;;;;;5046784;28;20275;-86
2023/03/08 07:18:21;;;;;;;;;;;13.40;90.10;;;;;;5049441;28;20020;-86
2023/03/08 07:20:56;;;;;;;;;;;13.40;90.00;;;;;;5028874;28;19975;-88
2023/03/08 07:23:22;;;;;;;;;;;13.40;90.00;;;;;;5046540;28;20321;-88
2023/03/08 07:25:51;;;;;;;;;;;13.40;89.90;;;;;;5028941;28;19909;-88
2023/03/08 07:28:17;;;;;;;;;;;13.40;89.80;;;;;;5029877;28;19913;-88
2023/03/08 07:30:47;;;;;;;;;;;13.40;89.70;;;;;;5029121;28;20059;-88
2023/03/08 07:33:13;;;;;;;;;;;13.40;89.60;;;;;;5030865;28;20207;-88
2023/03/08 07:35:38;;;;;;;;;;;13.40;89.60;;;;;;5029247;28;20071;-88
2023/03/08 07:38:07;;;;;;;;;;;13.40;89.40;;;;;;5030257;28;20015;-88
2023/03/08 07:40:32;;;;;;;;;;;13.40;89.30;;;;;;5029125;28;19909;-86
2023/03/08 07:42:58;;;;;;;;;;;13.40;89.30;;;;;;5028963;28;19966;-86
2023/03/08 07:45:23;;;;;;;;;;;13.40;89.40;;;;;;5031626;28;19994;-86
2023/03/08 07:47:52;;;;;;;;;;;13.30;89.30;;;;;;5030071;28;19923;-86
2023/03/08 07:50:18;;;;;;;;;;;13.30;89.40;;;;;;5030425;28;19916;-86
2023/03/08 07:52:44;;;;;;;;;;;13.30;89.20;;;;;;5032541;28;19990;-87
2023/03/08 07:55:12;;;;;;;;;;;13.30;89.20;;;;;;5047999;28;19985;-86
2023/03/08 07:57:41;;;;;;;;;;;13.30;89.10;;;;;;5025871;28;19941;-86
2023/03/08 08:00:07;;;;;;;;;;;13.30;89.10;;;;;;5029624;28;20017;-86
2023/03/08 08:02:34;;;;;;;;;;;13.30;89.10;;;;;;5030015;28;20060;-86
2023/03/08 08:05:00;;;;;;;;;;;13.30;89.00;;;;;;5047030;28;19917;-86
2023/03/08 08:07:26;;;;;;;;;;;13.30;88.90;;;;;;5029644;28;20237;-86
2023/03/08 08:09:52;;;;;;;;;;;13.30;89.00;;;;;;5028510;28;20290;-86
2023/03/08 08:12:18;;;;;;;;;;;13.30;88.70;;;;;;5027806;28;20218;-86
2023/03/08 08:14:43;;;;;;;;;;;13.30;88.60;;;;;;5048108;28;20002;-86
2023/03/08 08:17:09;;;;;;;;;;;13.30;88.50;;;;;;5046927;28;19928;-86
2023/03/08 08:19:35;;;;;;;;;;;13.30;88.20;;;;;;5045655;28;19916;-86
2023/03/08 08:22:01;;;;;;;;;;;13.30;87.90;;;;;;5029890;28;19916;-86
2023/03/08 08:24:27;;;;;;;;;;;13.30;87.80;;;;;;5031130;28;20236;-86
2023/03/08 08:26:52;;;;;;;;;;;13.20;87.60;;;;;;5029970;28;19959;-86
2023/03/08 08:29:21;;;;;;;;;;;13.20;87.50;;;;;;5030999;28;19911;-87
2023/03/08 08:31:47;;;;;;;;;;;13.20;87.50;;;;;;5043224;28;19917;-86
2023/03/08 08:34:13;;;;;;;;;;;13.20;87.40;;;;;;5047185;28;19909;-85
2023/03/08 08:36:38;;;;;;;;;;;13.20;87.10;;;;;;5030763;28;19919;-85
2023/03/08 08:39:08;;;;;;;;;;;13.20;87.00;;;;;;5045940;28;19912;-86
2023/03/08 08:41:37;;;;;;;;;;;13.20;87.00;;;;;;5028562;28;20282;-86
2023/03/08 08:44:02;;;;;;;;;;;13.20;86.90;;;;;;5025960;28;19916;-86
2023/03/08 08:46:29;;;;;;;;;;;13.20;86.80;;;;;;5042981;28;20192;-86
2023/03/08 08:48:56;;;;;;;;;;;13.10;86.70;;;;;;5027377;28;19919;-86
2023/03/08 08:51:24;;;;;;;;;;;13.10;86.50;;;;;;5029110;28;20081;-86
2023/03/08 08:53:51;;;;;;;;;;;13.10;86.40;;;;;;5031967;28;19940;-86
2023/03/08 08:56:18;;;;;;;;;;;13.10;86.40;;;;;;5033245;28;20178;-87
2023/03/08 08:58:47;;;;;;;;;;;13.10;86.40;;;;;;5034885;28;19948;-87
2023/03/08 09:01:17;;;;;;;;;;;13.10;86.20;;;;;;5033818;28;19944;-87
2023/03/08 09:03:49;;;;;;;;;;;13.10;86.00;;;;;;5034406;28;19909;-87
2023/03/08 09:06:15;;;;;;;;;;;13.10;86.00;;;;;;5034614;28;20403;-87
2023/03/08 09:08:41;;;;;;;;;;;13.10;85.80;;;;;;5034161;28;19994;-87
2023/03/08 09:11:08;;;;;;;;;;;13.10;85.80;;;;;;5033528;28;20237;-87
2023/03/08 09:13:40;;;;;;;;;;;13.10;85.60;;;;;;5052839;28;19986;-87
2023/03/08 09:16:08;;;;;;;;;;;13.10;85.20;;;;;;5031627;28;20103;-87
2023/03/08 09:18:37;;;;;;;;;;;13.10;84.90;;;;;;5033789;28;20217;-87
2023/03/08 09:21:03;;;;;;;;;;;13.10;84.70;;;;;;5034615;28;19917;-87
2023/03/08 09:23:28;;;;;;;;;;;13.10;84.50;;;;;;5033121;28;20099;-87
2023/03/08 09:25:55;;;;;;;;;;;13.10;84.30;;;;;;5033691;28;19970;-87
2023/03/08 09:28:20;;;;;;;;;;;13.10;84.20;;;;;;5033542;28;20465;-87
2023/03/08 09:30:46;;;;;;;;;;;13.10;83.90;;;;;;5034437;28;19909;-87
2023/03/08 09:33:12;;;;;;;;;;;13.10;83.80;;;;;;5032715;28;19920;-87
2023/03/08 09:35:41;;;;;;;;;;;13.10;83.80;;;;;;5030632;28;19935;-87
2023/03/08 09:38:06;;;;;;;;;;;13.10;83.60;;;;;;5031925;28;19919;-87
2023/03/08 09:40:39;;;;;;;;;;;13.10;83.50;;;;;;5032599;28;19935;-88
2023/03/08 09:43:12;;;;;;;;;;;13.10;83.70;;;;;;5050815;28;20190;-87
2023/03/08 09:45:37;;;;;;;;;;;13.10;83.60;;;;;;5034274;28;19916;-87
2023/03/08 09:48:14;;;;;;;;;;;13.10;83.70;;;;;;5033706;28;19912;-87
2023/03/08 09:50:40;;;;;;;;;;;13.10;83.20;;;;;;5031883;28;19923;-87
2023/03/08 09:53:24;;;;;;;;;;;13.10;82.80;;;;;;5031297;28;19913;-87
2023/03/08 09:56:05;;;;;;;;;;;13.10;82.40;;;;;;5030125;28;19917;-88
2023/03/08 09:58:38;;;;;;;;;;;13.10;82.30;;;;;;5032185;28;19913;-88
2023/03/08 10:01:21;;;;;;;;;;;13.10;82.20;;;;;;5051045;28;19935;-87
2023/03/08 10:03:59;;;;;;;;;;;13.10;82.10;;;;;;5048654;28;20041;-87
2023/03/08 10:06:44;;;;;;;;;;;13.10;82.10;;;;;;5030220;28;20011;-87
2023/03/08 10:09:24;;;;;;;;;;;13.10;82.10;;;;;;5031043;28;19916;-87
2023/03/08 10:11:57;;;;;;;;;;;13.10;81.90;;;;;;5032111;28;19956;-87
2023/03/08 10:14:29;;;;;;;;;;;13.10;81.80;;;;;;5048054;28;19913;-87
2023/03/08 10:16:57;;;;;;;;;;;13.10;81.60;;;;;;5032702;28;20085;-87
2023/03/08 10:19:26;;;;;;;;;;;13.10;81.50;;;;;;5030728;28;19909;-87
2023/03/08 10:21:52;;;;;;;;;;;13.10;81.10;;;;;;5029135;28;20255;-87
2023/03/08 10:24:18;;;;;;;;;;;13.10;81.10;;;;;;5032088;28;19909;-87
2023/03/08 10:26:44;;;;;;;;;;;13.10;81.10;;;;;;5031446;28;19919;-87
2023/03/08 10:29:10;;;;;;;;;;;13.10;81.10;;;;;;5030013;28;20162;-87
2023/03/08 10:31:36;;;;;;;;;;;13.10;80.90;;;;;;5031156;28;20092;-87
2023/03/08 10:34:05;;;;;;;;;;;13.10;80.80;;;;;;5030047;28;20166;-87
2023/03/08 10:36:31;;;;;;;;;;;13.10;80.80;;;;;;5028782;28;20293;-87
2023/03/08 10:38:58;;;;;;;;;;;13.10;80.40;;;;;;5029345;28;19944;-87
2023/03/08 10:41:27;;;;;;;;;;;13.10;80.40;;;;;;5030298;28;20283;-87
2023/03/08 10:43:55;;;;;;;;;;;13.10;80.10;;;;;;5030776;28;19919;-87
2023/03/08 10:46:24;;;;;;;;;;;13.20;79.60;;;;;;5031240;28;19974;-87
2023/03/08 10:48:50;;;;;;;;;;;13.20;79.40;;;;;;5030180;28;19909;-87
2023/03/08 10:51:18;;;;;;;;;;;13.20;79.10;;;;;;5028281;28;19916;-87
2023/03/08 10:53:58;;;;;;;;;;;13.20;78.70;;;;;;5049422;28;19916;-87
2023/03/08 10:56:25;;;;;;;;;;;13.20;78.40;;;;;;5028731;28;20003;-87
2023/03/08 10:58:54;;;;;;;;;;;13.30;78.00;;;;;;5030127;28;20131;-88
2023/03/08 11:01:23;;;;;;;;;;;13.30;77.80;;;;;;5029175;28;19916;-88
2023/03/08 11:04:12;;;;;;;;;;;13.30;77.60;;;;;;5029374;28;19909;-88
2023/03/08 11:06:41;;;;;;;;;;;13.30;77.30;;;;;;5040576;28;19976;-88
2023/03/08 11:09:25;;;;;;;;;;;13.30;77.00;;;;;;5046311;28;19916;-88
2023/03/08 11:11:51;;;;;;;;;;;13.30;76.80;;;;;;5029876;28;19978;-88
2023/03/08 11:14:17;;;;;;;;;;;13.30;76.60;;;;;;5029754;28;19913;-89
2023/03/08 11:16:42;;;;;;;;;;;13.30;76.50;;;;;;5029385;28;20183;-88
2023/03/08 11:19:27;;;;;;;;;;;13.30;76.50;;;;;;5029253;28;19909;-89
2023/03/08 11:22:01;;;;;;;;;;;13.30;76.60;;;;;;5029205;28;19917;-89
2023/03/08 11:24:26;;;;;;;;;;;13.30;76.70;;;;;;5029283;28;19971;-89
2023/03/08 11:26:52;;;;;;;;;;;13.30;76.90;;;;;;5030211;28;19913;-90
2023/03/08 11:29:39;;;;;;;;;;;13.20;76.90;;;;;;5028443;28;19967;-90
2023/03/08 11:32:28;;;;;;;;;;;13.20;77.10;;;;;;5027648;28;20264;-89
2023/03/08 11:34:53;;;;;;;;;;;13.20;77.30;;;;;;5027914;28;20248;-90
2023/03/08 11:37:24;;;;;;;;;;;13.20;77.30;;;;;;5028083;28;19917;-90
2023/03/08 11:40:09;;;;;;;;;;;13.20;77.50;;;;;;5030124;28;19962;-90
2023/03/08 11:42:34;;;;;;;;;;;13.20;77.40;;;;;;5031875;28;19920;-90
2023/03/08 11:45:18;;;;;;;;;;;13.20;77.50;;;;;;5031495;28;19909;-91
2023/03/08 11:48:02;;;;;;;;;;;13.20;77.60;;;;;;5049143;28;20301;-90
2023/03/08 11:50:38;;;;;;;;;;;13.20;77.80;;;;;;5045481;28;19919;-90
2023/03/08 11:53:04;;;;;;;;;;;13.10;77.60;;;;;;5028644;28;19908;-90
2023/03/08 11:55:48;;;;;;;;;;;13.10;77.60;;;;;;5045242;28;19915;-89
2023/03/08 11:58:19;;;;;;;;;;;13.10;77.70;;;;;;5027264;28;20094;-89
2023/03/08 12:00:45;;;;;;;;;;;13.10;77.40;;;;;;5025497;28;20257;-89
2023/03/08 12:03:19;;;;;;;;;;;13.10;77.50;;;;;;5029107;28;20329;-89
2023/03/08 12:05:50;;;;;;;;;;;13.10;77.40;;;;;;5027986;28;19908;-89
2023/03/08 12:08:25;;;;;;;;;;;13.00;77.50;;;;;;5027797;28;19913;-88
2023/03/08 12:10:50;;;;;;;;;;;13.00;77.80;;;;;;5026236;28;20293;-88
2023/03/08 12:13:39;;;;;;;;;;;13.00;77.90;;;;;;5026753;28;19909;-88
2023/03/08 12:16:24;;;;;;;;;;;13.00;78.20;;;;;;5018992;28;20066;-88
2023/03/08 12:18:50;;;;;;;;;;;13.00;78.30;;;;;;5023411;28;20071;-88
2023/03/08 12:21:34;;;;;;;;;;;13.00;78.40;;;;;;5023672;28;19909;-88
2023/03/08 12:24:18;;;;;;;;;;;13.00;78.70;;;;;;5043099;28;20278;-88
2023/03/08 12:26:50;;;;;;;;;;;13.00;78.50;;;;;;5027286;28;19913;-88
2023/03/08 12:29:24;;;;;;;;;;;13.00;78.40;;;;;;5029301;28;19908;-88
2023/03/08 12:31:53;;;;;;;;;;;13.00;78.30;;;;;;5028292;28;20065;-88
2023/03/08 12:34:21;;;;;;;;;;;13.00;78.30;;;;;;5028591;28;20480;-88
2023/03/08 12:36:50;;;;;;;;;;;13.00;78.20;;;;;;5030672;28;19920;-88
2023/03/08 12:39:27;;;;;;;;;;;13.00;78.10;;;;;;5030203;28;19912;-88
2023/03/08 12:42:16;;;;;;;;;;;13.00;78.30;;;;;;5031037;28;19908;-88
2023/03/08 12:44:42;;;;;;;;;;;13.00;78.50;;;;;;5042426;28;19921;-88
2023/03/08 12:47:11;;;;;;;;;;;13.00;78.20;;;;;;5031215;28;20274;-89
2023/03/08 12:49:38;;;;;;;;;;;13.00;77.90;;;;;;5032640;28;20086;-88
2023/03/08 12:52:27;;;;;;;;;;;13.00;78.20;;;;;;5028721;28;20343;-88
2023/03/08 12:54:55;;;;;;;;;;;13.00;78.00;;;;;;5045850;28;19909;-89
2023/03/08 12:57:22;;;;;;;;;;;13.00;78.10;;;;;;5026680;28;20480;-89
2023/03/08 12:59:58;;;;;;;;;;;12.90;78.20;;;;;;5025381;28;19909;-89
2023/03/08 13:02:29;;;;;;;;;;;12.90;78.20;;;;;;5024845;28;20294;-89
2023/03/08 13:05:14;;;;;;;;;;;13.00;78.20;;;;;;5026915;28;19932;-89
2023/03/08 13:07:48;;;;;;;;;;;13.00;78.00;;;;;;5027928;28;20235;-89
2023/03/08 13:10:19;;;;;;;;;;;12.90;78.00;;;;;;5048654;28;19908;-89
2023/03/08 13:12:51;;;;;;;;;;;12.90;78.00;;;;;;5031965;28;19909;-89
2023/03/08 13:15:20;;;;;;;;;;;12.90;78.30;;;;;;5047659;28;20350;-90
2023/03/08 13:17:50;;;;;;;;;;;12.90;78.20;;;;;;5045128;28;19916;-90
2023/03/08 13:20:35;;;;;;;;;;;12.80;78.00;;;;;;5030483;28;19908;-89
2023/03/08 13:23:03;;;;;;;;;;;12.80;78.20;;;;;;5030422;28;19963;-90
2023/03/08 13:25:48;;;;;;;;;;;12.80;78.10;;;;;;5032343;28;20374;-90
2023/03/08 13:28:21;;;;;;;;;;;12.80;78.10;;;;;;5031596;28;19923;-90
2023/03/08 13:30:59;;;;;;;;;;;12.80;78.20;;;;;;5044720;28;19917;-91
2023/03/08 13:33:29;;;;;;;;;;;12.70;78.20;;;;;;5030276;28;20296;-91
2023/03/08 13:35:55;;;;;;;;;;;12.70;78.90;;;;;;5031590;28;19983;-91
2023/03/08 13:38:22;;;;;;;;;;;12.70;79.00;;;;;;5031572;28;20161;-90
2023/03/08 13:40:51;;;;;;;;;;;12.70;79.20;;;;;;5034258;28;20416;-90
2023/03/08 13:43:19;;;;;;;;;;;12.70;79.00;;;;;;5036017;28;19999;-90
2023/03/08 13:45:46;;;;;;;;;;;12.70;78.90;;;;;;5036645;28;19920;-90
2023/03/08 13:48:12;;;;;;;;;;;12.70;78.90;;;;;;5035691;28;19944;-91
2023/03/08 13:50:44;;;;;;;;;;;12.60;78.90;;;;;;5035600;28;19956;-90
2023/03/08 13:53:15;;;;;;;;;;;12.60;79.00;;;;;;5037066;28;20210;-91
2023/03/08 13:55:42;;;;;;;;;;;12.60;78.80;;;;;;5054485;28;19909;-90
2023/03/08 13:58:17;;;;;;;;;;;12.60;78.90;;;;;;5037242;28;19919;-90
2023/03/08 14:01:02;;;;;;;;;;;12.60;78.90;;;;;;5037155;28;19909;-90
2023/03/08 14:03:31;;;;;;;;;;;12.60;78.70;;;;;;5037448;28;19919;-90
2023/03/08 14:05:57;;;;;;;;;;;12.60;78.80;;;;;;5037904;28;19909;-90
2023/03/08 14:08:26;;;;;;;;;;;12.60;78.60;;;;;;5036752;28;20065;-90
2023/03/08 14:11:13;;;;;;;;;;;12.60;78.50;;;;;;5036836;28;19970;-90
2023/03/08 14:13:41;;;;;;;;;;;12.60;78.50;;;;;;5037384;28;19920;-90
2023/03/08 14:16:08;;;;;;;;;;;12.60;78.70;;;;;;5037459;28;19977;-90
2023/03/08 14:18:38;;;;;;;;;;;12.50;78.60;;;;;;5037015;28;19920;-90
2023/03/08 14:21:06;;;;;;;;;;;12.50;78.60;;;;;;5038326;28;20134;-90
2023/03/08 14:23:35;;;;;;;;;;;12.50;78.60;;;;;;5038208;28;19909;-90
2023/03/08 14:26:00;;;;;;;;;;;12.50;78.60;;;;;;5038075;28;20214;-90
2023/03/08 14:28:33;;;;;;;;;;;12.50;78.70;;;;;;5038601;28;20297;-90
2023/03/08 14:31:08;;;;;;;;;;;12.50;78.70;;;;;;5037315;28;19931;-90
2023/03/08 14:33:34;;;;;;;;;;;12.50;78.80;;;;;;5035666;28;19940;-90
2023/03/08 14:36:03;;;;;;;;;;;12.50;78.60;;;;;;5035719;28;19956;-90
2023/03/08 14:38:29;;;;;;;;;;;12.50;78.70;;;;;;5036615;28;20484;-89
2023/03/08 14:40:59;;;;;;;;;;;12.50;78.90;;;;;;5037556;28;19909;-90
2023/03/08 14:43:28;;;;;;;;;;;12.50;78.80;;;;;;5037137;28;19952;-90
2023/03/08 14:45:56;;;;;;;;;;;12.50;78.90;;;;;;5036568;28;19924;-90
2023/03/08 14:48:23;;;;;;;;;;;12.40;79.00;;;;;;5036234;28;19978;-90
2023/03/08 14:50:50;;;;;;;;;;;12.40;79.00;;;;;;5036203;28;19920;-90
2023/03/08 14:53:36;;;;;;;;;;;12.40;79.20;;;;;;5037676;28;19973;-89
2023/03/08 14:56:05;;;;;;;;;;;12.40;79.20;;;;;;5035898;28;20725;-89